sensor_id;sensor_type;location;lat;lon;timestamp;pressure;altitude;pressure_sealevel;temperature;humidity
55460;BME280;41326;45.302;-122.946;2023-08-30T00:01:26;101432.76;;;22.36;58.81
55460;BME280;41326;45.302;-122.946;2023-08-30T00:03:56;101431.38;;;22.36;58.85
55460;BME280;41326;45.302;-122.946;2023-08-30T00:06:27;101429.28;;;22.37;58.84
55460;BME280;41326;45.302;-122.946;2023-08-30T00:08:57;101429.44;;;22.36;58.87
55460;BME280;41326;45.302;-122.946;2023-08-30T00:11:27;101423.98;;;22.40;58.74
55460;BME280;41326;45.302;-122.946;2023-08-30T00:14:02;101424.70;;;22.40;58.76
55460;BME280;41326;45.302;-122.946;2023-08-30T00:16:28;101422.95;;;22.41;58.72
55460;BME280;41326;45.302;-122.946;2023-08-30T00:18:59;101424.95;;;22.41;58.74
55460;BME280;41326;45.302;-122.946;2023-08-30T00:22:37;101426.58;;;22.42;58.71
55460;BME280;41326;45.302;-122.946;2023-08-30T00:25:07;101433.31;;;22.41;58.76
55460;BME280;41326;45.302;-122.946;2023-08-30T00:27:38;101436.07;;;22.44;58.66
55460;BME280;41326;45.302;-122.946;2023-08-30T00:30:09;101434.86;;;22.44;58.67
55460;BME280;41326;45.302;-122.946;2023-08-30T00:32:39;101432.30;;;22.44;58.66
55460;BME280;41326;45.302;-122.946;2023-08-30T00:35:09;101436.11;;;22.44;58.69
55460;BME280;41326;45.302;-122.946;2023-08-30T00:37:40;101439.57;;;22.44;58.69
55460;BME280;41326;45.302;-122.946;2023-08-30T00:40:11;101435.78;;;22.44;58.70
55460;BME280;41326;45.302;-122.946;2023-08-30T00:42:41;101433.01;;;22.46;58.67
55460;BME280;41326;45.302;-122.946;2023-08-30T00:45:11;101430.95;;;22.46;58.67
55460;BME280;41326;45.302;-122.946;2023-08-30T00:47:41;101430.42;;;22.47;58.78
55460;BME280;41326;45.302;-122.946;2023-08-30T00:50:12;101431.07;;;22.46;58.87
55460;BME280;41326;45.302;-122.946;2023-08-30T00:52:42;101425.23;;;22.48;58.86
55460;BME280;41326;45.302;-122.946;2023-08-30T00:55:13;101423.85;;;22.50;58.84
55460;BME280;41326;45.302;-122.946;2023-08-30T00:57:43;101420.58;;;22.49;58.85
55460;BME280;41326;45.302;-122.946;2023-08-30T01:00:15;101420.39;;;22.52;58.84
55460;BME280;41326;45.302;-122.946;2023-08-30T01:02:43;101418.07;;;22.52;58.80
55460;BME280;41326;45.302;-122.946;2023-08-30T01:05:14;101420.91;;;22.54;58.72
55460;BME280;41326;45.302;-122.946;2023-08-30T01:07:44;101422.80;;;22.55;58.76
55460;BME280;41326;45.302;-122.946;2023-08-30T01:10:15;101419.09;;;22.56;58.80
55460;BME280;41326;45.302;-122.946;2023-08-30T01:12:49;101419.87;;;22.56;58.79
55460;BME280;41326;45.302;-122.946;2023-08-30T01:15:18;101422.65;;;22.57;58.81
55460;BME280;41326;45.302;-122.946;2023-08-30T01:17:48;101420.62;;;22.52;56.16
55460;BME280;41326;45.302;-122.946;2023-08-30T01:20:19;101420.60;;;22.49;54.56
55460;BME280;41326;45.302;-122.946;2023-08-30T01:22:55;101421.50;;;22.44;54.93
55460;BME280;41326;45.302;-122.946;2023-08-30T01:25:27;101423.30;;;22.39;55.35
55460;BME280;41326;45.302;-122.946;2023-08-30T01:27:49;101425.74;;;22.33;55.46
55460;BME280;41326;45.302;-122.946;2023-08-30T01:30:19;101424.88;;;22.36;55.00
55460;BME280;41326;45.302;-122.946;2023-08-30T01:32:49;101427.90;;;22.30;54.88
55460;BME280;41326;45.302;-122.946;2023-08-30T01:35:20;101429.29;;;22.28;54.29
55460;BME280;41326;45.302;-122.946;2023-08-30T01:37:50;101430.32;;;22.33;54.29
55460;BME280;41326;45.302;-122.946;2023-08-30T01:40:21;101431.91;;;22.30;54.05
55460;BME280;41326;45.302;-122.946;2023-08-30T01:42:52;101432.37;;;22.24;54.41
55460;BME280;41326;45.302;-122.946;2023-08-30T01:45:20;101433.95;;;22.18;54.60
55460;BME280;41326;45.302;-122.946;2023-08-30T01:47:50;101433.41;;;22.23;54.86
55460;BME280;41326;45.302;-122.946;2023-08-30T01:50:21;101430.89;;;22.28;54.04
55460;BME280;41326;45.302;-122.946;2023-08-30T01:52:51;101434.21;;;22.29;53.78
55460;BME280;41326;45.302;-122.946;2023-08-30T01:55:24;101429.40;;;22.34;54.06
55460;BME280;41326;45.302;-122.946;2023-08-30T01:57:52;101429.60;;;22.33;53.70
55460;BME280;41326;45.302;-122.946;2023-08-30T02:00:22;101431.47;;;22.35;54.40
55460;BME280;41326;45.302;-122.946;2023-08-30T02:02:52;101437.22;;;22.37;54.25
55460;BME280;41326;45.302;-122.946;2023-08-30T02:05:22;101441.79;;;22.30;54.64
55460;BME280;41326;45.302;-122.946;2023-08-30T02:07:59;101440.75;;;22.33;54.72
55460;BME280;41326;45.302;-122.946;2023-08-30T02:10:30;101442.48;;;22.16;54.04
55460;BME280;41326;45.302;-122.946;2023-08-30T02:12:54;101448.63;;;22.23;54.34
55460;BME280;41326;45.302;-122.946;2023-08-30T02:15:24;101450.30;;;22.29;54.82
55460;BME280;41326;45.302;-122.946;2023-08-30T02:17:54;101452.18;;;22.25;54.31
55460;BME280;41326;45.302;-122.946;2023-08-30T02:20:24;101455.01;;;22.21;53.88
55460;BME280;41326;45.302;-122.946;2023-08-30T02:22:57;101455.92;;;22.21;54.17
55460;BME280;41326;45.302;-122.946;2023-08-30T02:25:25;101459.21;;;22.14;54.60
55460;BME280;41326;45.302;-122.946;2023-08-30T02:27:55;101458.11;;;22.11;54.15
55460;BME280;41326;45.302;-122.946;2023-08-30T02:30:25;101458.68;;;22.06;54.30
55460;BME280;41326;45.302;-122.946;2023-08-30T02:32:56;101458.16;;;22.05;54.70
55460;BME280;41326;45.302;-122.946;2023-08-30T02:35:26;101455.42;;;21.99;55.06
55460;BME280;41326;45.302;-122.946;2023-08-30T02:37:56;101454.15;;;22.00;55.20
55460;BME280;41326;45.302;-122.946;2023-08-30T02:40:27;101456.61;;;21.97;55.46
55460;BME280;41326;45.302;-122.946;2023-08-30T02:42:57;101456.14;;;21.97;55.13
55460;BME280;41326;45.302;-122.946;2023-08-30T02:45:28;101459.01;;;21.90;55.36
55460;BME280;41326;45.302;-122.946;2023-08-30T02:48:01;101459.71;;;21.88;55.81
55460;BME280;41326;45.302;-122.946;2023-08-30T02:50:28;101464.65;;;21.89;56.17
55460;BME280;41326;45.302;-122.946;2023-08-30T02:52:59;101469.90;;;21.87;56.24
55460;BME280;41326;45.302;-122.946;2023-08-30T02:55:30;101473.53;;;21.89;56.16
55460;BME280;41326;45.302;-122.946;2023-08-30T02:58:00;101473.39;;;21.87;56.52
55460;BME280;41326;45.302;-122.946;2023-08-30T03:00:30;101480.57;;;21.86;55.60
55460;BME280;41326;45.302;-122.946;2023-08-30T03:03:00;101488.67;;;21.75;56.11
55460;BME280;41326;45.302;-122.946;2023-08-30T03:05:30;101490.66;;;21.67;56.12
55460;BME280;41326;45.302;-122.946;2023-08-30T03:08:01;101489.83;;;21.68;56.36
55460;BME280;41326;45.302;-122.946;2023-08-30T03:10:31;101490.62;;;21.66;56.68
55460;BME280;41326;45.302;-122.946;2023-08-30T03:13:01;101492.98;;;21.63;56.72
55460;BME280;41326;45.302;-122.946;2023-08-30T03:15:32;101494.99;;;21.66;56.86
55460;BME280;41326;45.302;-122.946;2023-08-30T03:18:02;101497.89;;;21.62;57.21
55460;BME280;41326;45.302;-122.946;2023-08-30T03:20:32;101501.37;;;21.66;57.14
55460;BME280;41326;45.302;-122.946;2023-08-30T03:23:03;101502.49;;;21.63;57.28
55460;BME280;41326;45.302;-122.946;2023-08-30T03:25:35;101502.62;;;21.59;57.21
55460;BME280;41326;45.302;-122.946;2023-08-30T03:28:04;101503.35;;;21.54;57.09
55460;BME280;41326;45.302;-122.946;2023-08-30T03:30:36;101500.39;;;21.49;57.68
55460;BME280;41326;45.302;-122.946;2023-08-30T03:33:04;101502.89;;;21.51;57.97
55460;BME280;41326;45.302;-122.946;2023-08-30T03:35:39;101505.84;;;21.59;57.24
55460;BME280;41326;45.302;-122.946;2023-08-30T03:38:05;101507.38;;;21.62;54.69
55460;BME280;41326;45.302;-122.946;2023-08-30T03:40:36;101509.86;;;21.61;53.48
55460;BME280;41326;45.302;-122.946;2023-08-30T03:43:05;101510.04;;;21.56;52.84
55460;BME280;41326;45.302;-122.946;2023-08-30T03:45:39;101512.40;;;21.54;51.17
55460;BME280;41326;45.302;-122.946;2023-08-30T03:48:06;101516.90;;;21.46;50.00
55460;BME280;41326;45.302;-122.946;2023-08-30T03:50:36;101515.83;;;21.34;49.81
55460;BME280;41326;45.302;-122.946;2023-08-30T03:53:07;101517.08;;;21.24;48.91
55460;BME280;41326;45.302;-122.946;2023-08-30T03:55:36;101517.23;;;21.12;50.00
55460;BME280;41326;45.302;-122.946;2023-08-30T03:58:07;101519.95;;;21.00;48.42
55460;BME280;41326;45.302;-122.946;2023-08-30T04:00:38;101523.65;;;20.92;48.74
55460;BME280;41326;45.302;-122.946;2023-08-30T04:03:08;101530.28;;;20.83;49.66
55460;BME280;41326;45.302;-122.946;2023-08-30T04:05:38;101534.83;;;20.75;48.36
55460;BME280;41326;45.302;-122.946;2023-08-30T04:08:10;101539.01;;;20.74;48.23
55460;BME280;41326;45.302;-122.946;2023-08-30T04:10:41;101537.87;;;20.62;47.59
55460;BME280;41326;45.302;-122.946;2023-08-30T04:13:09;101541.34;;;20.57;48.51
55460;BME280;41326;45.302;-122.946;2023-08-30T04:15:40;101542.30;;;20.52;47.76
55460;BME280;41326;45.302;-122.946;2023-08-30T04:18:10;101543.04;;;20.41;48.09
55460;BME280;41326;45.302;-122.946;2023-08-30T04:20:43;101547.57;;;20.37;48.10
55460;BME280;41326;45.302;-122.946;2023-08-30T04:23:09;101550.97;;;20.31;48.45
55460;BME280;41326;45.302;-122.946;2023-08-30T04:25:40;101547.94;;;20.21;47.46
55460;BME280;41326;45.302;-122.946;2023-08-30T04:28:10;101548.10;;;20.08;48.25
55460;BME280;41326;45.302;-122.946;2023-08-30T04:30:42;101549.56;;;19.99;48.35
55460;BME280;41326;45.302;-122.946;2023-08-30T04:33:11;101549.59;;;19.90;48.06
55460;BME280;41326;45.302;-122.946;2023-08-30T04:35:41;101552.45;;;19.77;48.19
55460;BME280;41326;45.302;-122.946;2023-08-30T04:38:12;101556.96;;;19.71;48.27
55460;BME280;41326;45.302;-122.946;2023-08-30T04:40:41;101557.07;;;19.66;48.42
55460;BME280;41326;45.302;-122.946;2023-08-30T04:43:12;101559.91;;;19.60;48.51
55460;BME280;41326;45.302;-122.946;2023-08-30T04:45:42;101564.70;;;19.54;50.70
55460;BME280;41326;45.302;-122.946;2023-08-30T04:48:12;101567.21;;;19.58;52.89
55460;BME280;41326;45.302;-122.946;2023-08-30T04:50:42;101563.64;;;19.71;53.68
55460;BME280;41326;45.302;-122.946;2023-08-30T04:53:13;101562.39;;;19.84;54.06
55460;BME280;41326;45.302;-122.946;2023-08-30T04:55:43;101562.24;;;19.98;54.21
55460;BME280;41326;45.302;-122.946;2023-08-30T04:58:14;101563.19;;;20.14;54.23
55460;BME280;41326;45.302;-122.946;2023-08-30T05:00:44;101562.23;;;20.28;54.17
55460;BME280;41326;45.302;-122.946;2023-08-30T05:03:15;101559.59;;;20.38;54.37
55460;BME280;41326;45.302;-122.946;2023-08-30T05:05:46;101557.47;;;20.49;54.93
55460;BME280;41326;45.302;-122.946;2023-08-30T05:08:16;101556.45;;;20.59;55.12
55460;BME280;41326;45.302;-122.946;2023-08-30T05:10:46;101552.85;;;20.62;55.27
55460;BME280;41326;45.302;-122.946;2023-08-30T05:13:17;101555.78;;;20.68;55.46
55460;BME280;41326;45.302;-122.946;2023-08-30T05:15:47;101558.53;;;20.74;55.60
55460;BME280;41326;45.302;-122.946;2023-08-30T05:18:18;101561.30;;;20.82;55.73
55460;BME280;41326;45.302;-122.946;2023-08-30T05:20:47;101566.32;;;20.86;55.80
55460;BME280;41326;45.302;-122.946;2023-08-30T05:23:18;101571.72;;;20.87;56.12
55460;BME280;41326;45.302;-122.946;2023-08-30T05:25:48;101572.20;;;20.88;54.79
55460;BME280;41326;45.302;-122.946;2023-08-30T05:28:19;101573.15;;;20.82;53.28
55460;BME280;41326;45.302;-122.946;2023-08-30T05:30:50;101571.02;;;20.70;52.76
55460;BME280;41326;45.302;-122.946;2023-08-30T05:33:19;101565.25;;;20.58;50.45
55460;BME280;41326;45.302;-122.946;2023-08-30T05:35:49;101559.85;;;20.42;53.02
55460;BME280;41326;45.302;-122.946;2023-08-30T05:38:19;101557.00;;;20.33;54.18
55460;BME280;41326;45.302;-122.946;2023-08-30T05:40:49;101557.00;;;20.34;54.81
55460;BME280;41326;45.302;-122.946;2023-08-30T05:43:20;101551.82;;;20.40;55.20
55460;BME280;41326;45.302;-122.946;2023-08-30T05:45:50;101550.58;;;20.51;55.76
55460;BME280;41326;45.302;-122.946;2023-08-30T05:48:20;101550.13;;;20.58;56.22
55460;BME280;41326;45.302;-122.946;2023-08-30T05:50:50;101551.09;;;20.61;56.47
55460;BME280;41326;45.302;-122.946;2023-08-30T05:53:22;101550.32;;;20.64;56.54
55460;BME280;41326;45.302;-122.946;2023-08-30T05:55:52;101555.77;;;20.70;56.57
55460;BME280;41326;45.302;-122.946;2023-08-30T05:58:22;101560.54;;;20.72;56.76
55460;BME280;41326;45.302;-122.946;2023-08-30T06:00:53;101563.98;;;20.77;56.83
55460;BME280;41326;45.302;-122.946;2023-08-30T06:03:23;101566.05;;;20.82;57.43
55460;BME280;41326;45.302;-122.946;2023-08-30T06:05:54;101567.72;;;20.86;58.20
55460;BME280;41326;45.302;-122.946;2023-08-30T06:08:24;101571.61;;;20.90;58.65
55460;BME280;41326;45.302;-122.946;2023-08-30T06:10:54;101569.14;;;20.90;58.73
55460;BME280;41326;45.302;-122.946;2023-08-30T06:13:24;101569.23;;;20.92;58.71
55460;BME280;41326;45.302;-122.946;2023-08-30T06:15:56;101568.66;;;20.91;58.79
55460;BME280;41326;45.302;-122.946;2023-08-30T06:18:29;101571.15;;;20.91;56.06
55460;BME280;41326;45.302;-122.946;2023-08-30T06:20:56;101572.77;;;20.79;55.17
55460;BME280;41326;45.302;-122.946;2023-08-30T06:23:26;101574.37;;;20.63;55.90
55460;BME280;41326;45.302;-122.946;2023-08-30T06:26:01;101570.34;;;20.60;57.07
55460;BME280;41326;45.302;-122.946;2023-08-30T06:28:27;101563.81;;;20.60;57.79
55460;BME280;41326;45.302;-122.946;2023-08-30T06:30:58;101563.51;;;20.61;57.90
55460;BME280;41326;45.302;-122.946;2023-08-30T06:33:28;101566.63;;;20.64;58.00
55460;BME280;41326;45.302;-122.946;2023-08-30T06:35:58;101567.86;;;20.68;57.99
55460;BME280;41326;45.302;-122.946;2023-08-30T06:38:29;101567.38;;;20.71;57.99
55460;BME280;41326;45.302;-122.946;2023-08-30T06:40:59;101566.51;;;20.74;57.98
55460;BME280;41326;45.302;-122.946;2023-08-30T06:43:30;101563.45;;;20.77;58.23
55460;BME280;41326;45.302;-122.946;2023-08-30T06:46:03;101565.89;;;20.79;58.95
55460;BME280;41326;45.302;-122.946;2023-08-30T06:48:30;101569.96;;;20.79;59.42
55460;BME280;41326;45.302;-122.946;2023-08-30T06:51:03;101575.41;;;20.79;59.45
55460;BME280;41326;45.302;-122.946;2023-08-30T06:53:32;101578.79;;;20.81;59.50
55460;BME280;41326;45.302;-122.946;2023-08-30T06:56:03;101580.93;;;20.84;59.45
55460;BME280;41326;45.302;-122.946;2023-08-30T06:58:32;101582.23;;;20.82;59.69
55460;BME280;41326;45.302;-122.946;2023-08-30T07:01:03;101579.88;;;20.86;59.65
55460;BME280;41326;45.302;-122.946;2023-08-30T07:03:33;101579.66;;;20.89;59.91
55460;BME280;41326;45.302;-122.946;2023-08-30T07:06:04;101581.56;;;20.90;60.59
55460;BME280;41326;45.302;-122.946;2023-08-30T07:08:33;101580.72;;;20.89;60.87
55460;BME280;41326;45.302;-122.946;2023-08-30T07:11:04;101578.94;;;20.89;60.83
55460;BME280;41326;45.302;-122.946;2023-08-30T07:13:34;101577.95;;;20.88;60.89
55460;BME280;41326;45.302;-122.946;2023-08-30T07:16:05;101575.33;;;20.86;61.04
55460;BME280;41326;45.302;-122.946;2023-08-30T07:18:34;101574.22;;;20.86;61.00
55460;BME280;41326;45.302;-122.946;2023-08-30T07:21:05;101576.48;;;20.85;60.99
55460;BME280;41326;45.302;-122.946;2023-08-30T07:23:35;101573.68;;;20.86;61.27
55460;BME280;41326;45.302;-122.946;2023-08-30T07:26:06;101572.32;;;20.85;61.82
55460;BME280;41326;45.302;-122.946;2023-08-30T07:28:36;101574.02;;;20.87;62.01
55460;BME280;41326;45.302;-122.946;2023-08-30T07:31:09;101571.75;;;20.89;61.83
55460;BME280;41326;45.302;-122.946;2023-08-30T07:33:36;101569.25;;;20.89;61.81
55460;BME280;41326;45.302;-122.946;2023-08-30T07:36:07;101571.20;;;20.89;61.75
55460;BME280;41326;45.302;-122.946;2023-08-30T07:38:37;101567.98;;;20.87;61.85
55460;BME280;41326;45.302;-122.946;2023-08-30T07:41:07;101568.98;;;20.86;61.84
55460;BME280;41326;45.302;-122.946;2023-08-30T07:43:37;101570.38;;;20.87;62.06
55460;BME280;41326;45.302;-122.946;2023-08-30T07:46:07;101569.03;;;20.86;62.46
55460;BME280;41326;45.302;-122.946;2023-08-30T07:48:37;101565.53;;;20.86;62.67
55460;BME280;41326;45.302;-122.946;2023-08-30T07:51:08;101566.46;;;20.87;62.61
55460;BME280;41326;45.302;-122.946;2023-08-30T07:53:37;101568.56;;;20.84;62.57
55460;BME280;41326;45.302;-122.946;2023-08-30T07:56:08;101569.29;;;20.79;62.72
55460;BME280;41326;45.302;-122.946;2023-08-30T07:58:40;101573.18;;;20.78;62.72
55460;BME280;41326;45.302;-122.946;2023-08-30T08:01:09;101575.84;;;20.77;62.77
55460;BME280;41326;45.302;-122.946;2023-08-30T08:03:40;101576.31;;;20.80;62.73
55460;BME280;41326;45.302;-122.946;2023-08-30T08:06:10;101576.26;;;20.82;62.89
55460;BME280;41326;45.302;-122.946;2023-08-30T08:08:40;101574.42;;;20.80;63.13
55460;BME280;41326;45.302;-122.946;2023-08-30T08:11:11;101575.16;;;20.83;62.93
55460;BME280;41326;45.302;-122.946;2023-08-30T08:13:41;101573.24;;;20.80;62.99
55460;BME280;41326;45.302;-122.946;2023-08-30T08:16:11;101571.81;;;20.83;62.90
55460;BME280;41326;45.302;-122.946;2023-08-30T08:18:41;101573.55;;;20.83;62.84
55460;BME280;41326;45.302;-122.946;2023-08-30T08:21:11;101569.19;;;20.85;62.72
55460;BME280;41326;45.302;-122.946;2023-08-30T08:23:41;101566.45;;;20.84;62.87
55460;BME280;41326;45.302;-122.946;2023-08-30T08:26:12;101566.90;;;20.85;63.08
55460;BME280;41326;45.302;-122.946;2023-08-30T08:28:43;101565.73;;;20.82;63.22
55460;BME280;41326;45.302;-122.946;2023-08-30T08:31:13;101562.97;;;20.79;63.19
55460;BME280;41326;45.302;-122.946;2023-08-30T08:33:43;101558.07;;;20.78;63.12
55460;BME280;41326;45.302;-122.946;2023-08-30T08:36:14;101559.05;;;20.80;62.96
55460;BME280;41326;45.302;-122.946;2023-08-30T08:38:44;101556.18;;;20.80;62.88
55460;BME280;41326;45.302;-122.946;2023-08-30T08:41:17;101557.95;;;20.80;62.77
55460;BME280;41326;45.302;-122.946;2023-08-30T08:43:46;101558.99;;;20.79;62.89
55460;BME280;41326;45.302;-122.946;2023-08-30T08:46:15;101562.98;;;20.80;62.98
55460;BME280;41326;45.302;-122.946;2023-08-30T08:48:48;101561.86;;;20.76;63.16
55460;BME280;41326;45.302;-122.946;2023-08-30T08:51:17;101560.30;;;20.75;63.09
55460;BME280;41326;45.302;-122.946;2023-08-30T08:53:47;101563.37;;;20.73;63.09
55460;BME280;41326;45.302;-122.946;2023-08-30T08:56:18;101566.51;;;20.72;63.08
55460;BME280;41326;45.302;-122.946;2023-08-30T08:58:48;101566.16;;;20.71;63.03
55460;BME280;41326;45.302;-122.946;2023-08-30T09:01:19;101568.84;;;20.69;63.10
55460;BME280;41326;45.302;-122.946;2023-08-30T09:03:49;101567.90;;;20.70;63.03
55460;BME280;41326;45.302;-122.946;2023-08-30T09:06:20;101569.68;;;20.73;63.06
55460;BME280;41326;45.302;-122.946;2023-08-30T09:08:49;101573.80;;;20.73;63.05
55460;BME280;41326;45.302;-122.946;2023-08-30T09:11:20;101570.64;;;20.73;63.00
55460;BME280;41326;45.302;-122.946;2023-08-30T09:13:50;101573.63;;;20.72;62.96
55460;BME280;41326;45.302;-122.946;2023-08-30T09:16:20;101573.33;;;20.71;62.90
55460;BME280;41326;45.302;-122.946;2023-08-30T09:21:21;101570.91;;;20.70;62.74
55460;BME280;41326;45.302;-122.946;2023-08-30T09:26:22;101566.58;;;20.66;62.97
55460;BME280;41326;45.302;-122.946;2023-08-30T09:28:52;101567.14;;;20.66;62.96
55460;BME280;41326;45.302;-122.946;2023-08-30T09:31:23;101564.08;;;20.63;62.98
55460;BME280;41326;45.302;-122.946;2023-08-30T09:33:57;101565.72;;;20.62;62.94
55460;BME280;41326;45.302;-122.946;2023-08-30T09:36:23;101566.31;;;20.63;62.83
55460;BME280;41326;45.302;-122.946;2023-08-30T09:38:54;101567.76;;;20.63;62.79
55460;BME280;41326;45.302;-122.946;2023-08-30T09:41:24;101571.44;;;20.62;62.75
55460;BME280;41326;45.302;-122.946;2023-08-30T09:43:54;101574.59;;;20.61;62.77
55460;BME280;41326;45.302;-122.946;2023-08-30T09:46:24;101574.86;;;20.64;62.72
55460;BME280;41326;45.302;-122.946;2023-08-30T09:48:55;101575.90;;;20.60;62.87
55460;BME280;41326;45.302;-122.946;2023-08-30T09:51:26;101576.64;;;20.61;62.79
55460;BME280;41326;45.302;-122.946;2023-08-30T09:53:58;101579.06;;;20.62;62.72
55460;BME280;41326;45.302;-122.946;2023-08-30T09:56:26;101576.60;;;20.62;62.62
55460;BME280;41326;45.302;-122.946;2023-08-30T09:58:56;101576.37;;;20.61;62.60
55460;BME280;41326;45.302;-122.946;2023-08-30T10:01:26;101578.18;;;20.61;62.53
55460;BME280;41326;45.302;-122.946;2023-08-30T10:03:57;101582.64;;;20.56;62.70
55460;BME280;41326;45.302;-122.946;2023-08-30T10:06:28;101587.03;;;20.51;62.97
55460;BME280;41326;45.302;-122.946;2023-08-30T10:08:59;101589.53;;;20.50;62.94
55460;BME280;41326;45.302;-122.946;2023-08-30T10:12:47;101584.37;;;20.52;62.77
55460;BME280;41326;45.302;-122.946;2023-08-30T10:15:17;101583.34;;;20.51;62.70
55460;BME280;41326;45.302;-122.946;2023-08-30T10:17:51;101584.00;;;20.54;62.57
55460;BME280;41326;45.302;-122.946;2023-08-30T10:20:18;101590.83;;;20.50;62.66
55460;BME280;41326;45.302;-122.946;2023-08-30T10:22:49;101593.21;;;20.50;62.61
55460;BME280;41326;45.302;-122.946;2023-08-30T10:25:21;101596.18;;;20.50;62.61
55460;BME280;41326;45.302;-122.946;2023-08-30T10:27:51;101597.58;;;20.49;62.72
55460;BME280;41326;45.302;-122.946;2023-08-30T10:30:20;101595.93;;;20.48;62.76
55460;BME280;41326;45.302;-122.946;2023-08-30T10:32:50;101596.10;;;20.48;62.72
55460;BME280;41326;45.302;-122.946;2023-08-30T10:35:20;101596.86;;;20.52;62.59
55460;BME280;41326;45.302;-122.946;2023-08-30T10:37:54;101596.79;;;20.50;62.67
55460;BME280;41326;45.302;-122.946;2023-08-30T10:40:20;101593.67;;;20.48;62.72
55460;BME280;41326;45.302;-122.946;2023-08-30T10:45:25;101594.57;;;20.48;62.77
55460;BME280;41326;45.302;-122.946;2023-08-30T10:47:54;101592.27;;;20.46;62.94
55460;BME280;41326;45.302;-122.946;2023-08-30T10:52:56;101590.05;;;20.45;63.00
55460;BME280;41326;45.302;-122.946;2023-08-30T10:55:22;101590.63;;;20.48;62.88
55460;BME280;41326;45.302;-122.946;2023-08-30T11:00:27;101590.71;;;20.44;62.94
55460;BME280;41326;45.302;-122.946;2023-08-30T11:02:54;101590.66;;;20.46;62.89
55460;BME280;41326;45.302;-122.946;2023-08-30T11:05:23;101588.93;;;20.46;62.90
55460;BME280;41326;45.302;-122.946;2023-08-30T11:07:53;101587.33;;;20.48;62.86
55460;BME280;41326;45.302;-122.946;2023-08-30T11:10:23;101587.63;;;20.49;62.83
55460;BME280;41326;45.302;-122.946;2023-08-30T11:12:55;101586.91;;;20.49;62.85
55460;BME280;41326;45.302;-122.946;2023-08-30T11:15:23;101584.45;;;20.46;62.90
55460;BME280;41326;45.302;-122.946;2023-08-30T11:20:24;101583.83;;;20.47;62.88
55460;BME280;41326;45.302;-122.946;2023-08-30T11:22:54;101584.95;;;20.46;62.89
55460;BME280;41326;45.302;-122.946;2023-08-30T11:25:25;101586.89;;;20.47;62.89
55460;BME280;41326;45.302;-122.946;2023-08-30T11:30:25;101583.44;;;20.42;63.15
55460;BME280;41326;45.302;-122.946;2023-08-30T11:32:57;101583.58;;;20.42;63.12
55460;BME280;41326;45.302;-122.946;2023-08-30T11:35:27;101587.20;;;20.42;63.12
55460;BME280;41326;45.302;-122.946;2023-08-30T11:37:57;101587.73;;;20.44;63.04
55460;BME280;41326;45.302;-122.946;2023-08-30T11:40:28;101584.01;;;20.45;63.00
55460;BME280;41326;45.302;-122.946;2023-08-30T11:42:57;101585.84;;;20.45;62.98
55460;BME280;41326;45.302;-122.946;2023-08-30T11:45:28;101585.35;;;20.46;62.92
55460;BME280;41326;45.302;-122.946;2023-08-30T11:47:58;101584.07;;;20.44;62.97
55460;BME280;41326;45.302;-122.946;2023-08-30T11:50:28;101583.16;;;20.46;62.93
55460;BME280;41326;45.302;-122.946;2023-08-30T11:52:59;101583.66;;;20.42;63.08
55460;BME280;41326;45.302;-122.946;2023-08-30T11:55:29;101584.48;;;20.44;63.03
55460;BME280;41326;45.302;-122.946;2023-08-30T11:57:59;101586.13;;;20.42;63.03
55460;BME280;41326;45.302;-122.946;2023-08-30T12:00:32;101583.31;;;20.39;63.09
55460;BME280;41326;45.302;-122.946;2023-08-30T12:03:00;101579.48;;;20.38;63.06
55460;BME280;41326;45.302;-122.946;2023-08-30T12:05:30;101579.50;;;20.38;63.02
55460;BME280;41326;45.302;-122.946;2023-08-30T12:08:01;101577.56;;;20.38;62.98
55460;BME280;41326;45.302;-122.946;2023-08-30T12:10:31;101574.66;;;20.37;63.02
55460;BME280;41326;45.302;-122.946;2023-08-30T12:13:01;101571.37;;;20.39;62.92
55460;BME280;41326;45.302;-122.946;2023-08-30T12:15:32;101571.84;;;20.37;62.98
55460;BME280;41326;45.302;-122.946;2023-08-30T12:18:07;101572.17;;;20.39;62.85
55460;BME280;41326;45.302;-122.946;2023-08-30T12:20:34;101570.62;;;20.39;62.78
55460;BME280;41326;45.302;-122.946;2023-08-30T12:23:04;101570.13;;;20.33;62.95
55460;BME280;41326;45.302;-122.946;2023-08-30T12:25:34;101567.52;;;20.31;63.01
55460;BME280;41326;45.302;-122.946;2023-08-30T12:28:04;101567.55;;;20.35;62.88
55460;BME280;41326;45.302;-122.946;2023-08-30T12:30:34;101567.71;;;20.38;62.73
55460;BME280;41326;45.302;-122.946;2023-08-30T12:33:06;101572.41;;;20.29;62.96
55460;BME280;41326;45.302;-122.946;2023-08-30T12:35:35;101572.29;;;20.29;62.94
55460;BME280;41326;45.302;-122.946;2023-08-30T12:38:06;101575.22;;;20.27;62.94
55460;BME280;41326;45.302;-122.946;2023-08-30T12:40:35;101573.38;;;20.29;62.82
55460;BME280;41326;45.302;-122.946;2023-08-30T12:43:06;101572.60;;;20.27;62.87
55460;BME280;41326;45.302;-122.946;2023-08-30T12:45:36;101574.85;;;20.27;62.86
55460;BME280;41326;45.302;-122.946;2023-08-30T12:48:07;101574.62;;;20.24;62.92
55460;BME280;41326;45.302;-122.946;2023-08-30T12:50:37;101575.49;;;20.25;62.89
55460;BME280;41326;45.302;-122.946;2023-08-30T12:53:07;101573.82;;;20.24;62.90
55460;BME280;41326;45.302;-122.946;2023-08-30T12:55:37;101573.91;;;20.21;62.94